createdAt,value
2024-04-24T00:01:06.815Z,18.40
2024-04-24T00:03:46.596Z,18.40
2024-04-24T00:06:14.258Z,18.20
2024-04-24T00:08:42.099Z,20.30
2024-04-24T00:11:09.797Z,20.00
2024-04-24T00:13:37.478Z,19.60
2024-04-24T00:16:05.291Z,17.20
2024-04-24T00:18:33.073Z,19.90
2024-04-24T00:21:00.769Z,19.40
2024-04-24T00:23:28.506Z,19.20
2024-04-24T00:25:57.886Z,18.90
2024-04-24T00:28:25.495Z,17.50
2024-04-24T00:31:00.240Z,18.50
2024-04-24T00:33:28.199Z,17.60
2024-04-24T00:35:55.870Z,17.90
2024-04-24T00:38:23.478Z,18.60
2024-04-24T00:40:51.160Z,17.70
2024-04-24T00:43:19.022Z,18.70
2024-04-24T00:45:48.078Z,17.60
2024-04-24T00:48:16.145Z,17.30
2024-04-24T00:50:44.684Z,17.30
2024-04-24T00:53:12.403Z,17.00
2024-04-24T00:55:40.714Z,16.30
2024-04-24T00:58:10.286Z,13.00
2024-04-24T01:00:40.736Z,17.30
2024-04-24T01:03:10.355Z,16.20
2024-04-24T01:05:38.717Z,16.90
2024-04-24T01:08:06.653Z,17.00
2024-04-24T01:11:33.934Z,16.40
2024-04-24T01:14:06.570Z,16.60
2024-04-24T01:16:38.449Z,15.80
2024-04-24T01:19:59.526Z,17.60
2024-04-24T01:22:40.267Z,16.80
2024-04-24T01:25:20.769Z,16.10
2024-04-24T01:27:48.564Z,17.70
2024-04-24T01:30:16.298Z,16.40
2024-04-24T01:32:44.018Z,16.80
2024-04-24T01:35:11.889Z,16.50
2024-04-24T01:37:39.524Z,15.70
2024-04-24T01:40:07.892Z,16.30
2024-04-24T01:42:35.523Z,16.80
2024-04-24T01:45:03.238Z,17.50
2024-04-24T01:47:31.495Z,17.70
2024-04-24T01:49:59.327Z,17.00
2024-04-24T01:52:27.673Z,16.40
2024-04-24T01:54:55.450Z,17.20
2024-04-24T01:57:23.352Z,15.60
2024-04-24T01:59:50.973Z,17.10
2024-04-24T02:02:18.903Z,17.70
2024-04-24T02:04:46.651Z,16.50
2024-04-24T02:07:14.272Z,17.50
2024-04-24T02:09:41.906Z,15.90
2024-04-24T02:12:15.890Z,17.10
2024-04-24T02:14:44.744Z,17.90
2024-04-24T02:17:12.481Z,18.20
2024-04-24T02:19:42.373Z,19.30
2024-04-24T02:22:10.808Z,18.00
2024-04-24T02:24:57.074Z,17.40
2024-04-24T02:27:24.685Z,17.80
2024-04-24T02:29:56.365Z,19.30
2024-04-24T02:32:24.862Z,18.50
2024-04-24T02:34:52.834Z,19.90
2024-04-24T02:37:21.202Z,18.40
2024-04-24T02:39:48.791Z,19.40
2024-04-24T02:42:16.428Z,19.20
2024-04-24T02:44:44.017Z,21.40
2024-04-24T02:47:12.326Z,19.90
2024-04-24T02:49:40.019Z,17.00
2024-04-24T02:52:08.138Z,21.10
2024-04-24T02:54:35.752Z,20.50
2024-04-24T02:57:03.441Z,22.20
2024-04-24T02:59:31.039Z,21.30
2024-04-24T03:01:58.692Z,20.50
2024-04-24T03:04:26.356Z,20.50
2024-04-24T03:06:54.084Z,22.40
2024-04-24T03:09:21.678Z,19.00
2024-04-24T03:11:49.410Z,20.90
2024-04-24T03:14:22.228Z,21.60
2024-04-24T03:16:50.254Z,20.80
2024-04-24T03:19:17.940Z,22.60
2024-04-24T03:21:45.591Z,22.80
2024-04-24T03:24:13.314Z,23.20
2024-04-24T03:26:40.924Z,23.80
2024-04-24T03:29:08.597Z,22.90
2024-04-24T03:31:36.282Z,19.30
2024-04-24T03:34:03.949Z,23.40
2024-04-24T03:36:31.658Z,21.30
2024-04-24T03:39:00.224Z,22.80
2024-04-24T03:41:28.008Z,22.70
2024-04-24T03:43:56.007Z,21.20
2024-04-24T03:46:23.619Z,22.50
2024-04-24T03:48:51.337Z,19.30
2024-04-24T03:51:19.217Z,20.70
2024-04-24T03:53:46.842Z,22.00
2024-04-24T03:56:14.603Z,23.20
2024-04-24T03:58:42.244Z,22.40
2024-04-24T04:01:09.906Z,21.80
2024-04-24T04:03:38.505Z,20.90
2024-04-24T04:06:06.553Z,20.20
2024-04-24T04:08:34.207Z,22.50
2024-04-24T04:11:01.815Z,19.10
2024-04-24T04:13:29.628Z,22.20
2024-04-24T04:15:57.472Z,20.80
2024-04-24T04:18:25.239Z,22.60
2024-04-24T04:20:52.923Z,21.00
2024-04-24T04:23:20.635Z,21.50
2024-04-24T04:25:48.279Z,19.00
2024-04-24T04:28:15.924Z,21.60
2024-04-24T04:30:43.587Z,19.70
2024-04-24T04:33:11.308Z,19.60
2024-04-24T04:38:06.483Z,21.90
2024-04-24T04:40:34.106Z,20.20
2024-04-24T04:43:01.722Z,19.00
2024-04-24T04:45:29.357Z,20.30
2024-04-24T04:47:57.097Z,20.80
2024-04-24T04:50:24.873Z,20.50
2024-04-24T04:52:52.648Z,21.40
2024-04-24T04:55:20.286Z,22.10
2024-04-24T04:57:48.354Z,20.70
2024-04-24T05:00:16.342Z,21.40
2024-04-24T05:02:45.783Z,20.60
2024-04-24T05:05:13.877Z,22.50
2024-04-24T05:07:41.512Z,21.70
2024-04-24T05:10:09.271Z,20.50
2024-04-24T05:12:37.244Z,19.80
2024-04-24T05:15:05.300Z,21.40
2024-04-24T05:17:33.196Z,20.90
2024-04-24T05:20:01.232Z,18.80
2024-04-24T05:22:34.528Z,19.70
2024-04-24T05:25:02.434Z,20.50
2024-04-24T05:27:49.585Z,21.60
2024-04-24T05:33:14.784Z,18.40
2024-04-24T05:35:42.536Z,19.90
2024-04-24T05:38:14.205Z,17.80
2024-04-24T05:40:42.204Z,19.30
2024-04-24T05:43:11.928Z,19.00
2024-04-24T05:45:40.882Z,19.70
2024-04-24T05:48:08.723Z,20.30
2024-04-24T05:50:36.478Z,19.90
2024-04-24T05:53:04.391Z,19.20
2024-04-24T05:55:32.035Z,21.10
2024-04-24T05:57:59.669Z,18.20
2024-04-24T06:00:27.318Z,20.40
2024-04-24T06:02:57.867Z,21.90
2024-04-24T06:05:25.685Z,21.00
2024-04-24T06:07:54.106Z,19.10
2024-04-24T06:10:21.737Z,19.50
2024-04-24T06:12:49.368Z,19.40
2024-04-24T06:15:17.004Z,20.60
2024-04-24T06:17:45.040Z,18.70
2024-04-24T06:20:19.183Z,21.40
2024-04-24T06:22:46.874Z,20.50
2024-04-24T06:25:15.648Z,21.20
2024-04-24T06:27:43.263Z,20.90
2024-04-24T06:30:11.047Z,21.70
2024-04-24T06:32:38.829Z,18.00
2024-04-24T06:35:06.660Z,21.50
2024-04-24T06:37:34.349Z,19.00
2024-04-24T06:40:01.968Z,18.90
2024-04-24T06:42:29.715Z,19.20
2024-04-24T06:44:57.380Z,17.50
2024-04-24T06:47:25.102Z,20.40
2024-04-24T06:49:52.849Z,19.10
2024-04-24T06:52:20.528Z,19.50
2024-04-24T06:54:48.180Z,19.20
2024-04-24T06:57:17.982Z,16.90
2024-04-24T06:59:46.047Z,19.10
2024-04-24T07:02:13.842Z,18.80
2024-04-24T07:04:41.963Z,18.90
2024-04-24T07:07:09.574Z,17.30
2024-04-24T07:09:37.692Z,19.40
2024-04-24T07:12:21.621Z,17.10
2024-04-24T07:14:50.036Z,16.50
2024-04-24T07:17:17.796Z,17.30
2024-04-24T07:19:45.462Z,16.30
2024-04-24T07:22:13.922Z,17.70
2024-04-24T07:24:41.624Z,14.20
2024-04-24T07:27:09.278Z,16.70
2024-04-24T07:29:37.028Z,15.40
2024-04-24T07:32:05.129Z,17.70
2024-04-24T07:34:32.817Z,18.80
2024-04-24T07:37:00.710Z,15.60
2024-04-24T07:39:28.445Z,18.70
2024-04-24T07:41:56.535Z,17.10
2024-04-24T07:44:24.245Z,17.90
2024-04-24T07:46:51.943Z,16.30
2024-04-24T07:49:19.605Z,16.90
2024-04-24T07:51:47.282Z,15.80
2024-04-24T07:54:14.954Z,17.70
2024-04-24T07:56:42.607Z,15.20
2024-04-24T07:59:10.384Z,16.40
2024-04-24T08:01:38.108Z,17.90
2024-04-24T08:04:05.880Z,17.10
2024-04-24T08:06:33.629Z,17.60
2024-04-24T08:09:01.344Z,18.30
2024-04-24T08:11:29.110Z,17.20
2024-04-24T08:13:56.881Z,17.40
2024-04-24T08:18:52.229Z,19.20
2024-04-24T08:21:19.914Z,19.20
2024-04-24T08:23:47.805Z,13.70
2024-04-24T08:26:15.561Z,17.10
2024-04-24T08:28:43.377Z,18.50
2024-04-24T08:31:11.181Z,17.60
2024-04-24T08:33:39.017Z,17.40
2024-04-24T08:36:11.120Z,16.50
2024-04-24T08:38:39.654Z,16.70
2024-04-24T08:41:07.275Z,15.50
2024-04-24T08:43:37.392Z,18.60
2024-04-24T08:46:06.674Z,15.40
2024-04-24T08:48:41.837Z,15.30
2024-04-24T08:51:11.468Z,16.80
2024-04-24T08:54:05.007Z,15.70
2024-04-24T08:56:40.307Z,14.70
2024-04-24T08:59:19.713Z,15.20
2024-04-24T09:01:57.305Z,14.60
2024-04-24T09:04:26.128Z,13.80
2024-04-24T09:06:55.551Z,14.30
2024-04-24T09:09:25.420Z,14.20
2024-04-24T09:16:14.462Z,14.10
2024-04-24T09:18:42.209Z,13.40
2024-04-24T09:21:10.041Z,13.80
2024-04-24T09:23:37.670Z,13.00
2024-04-24T09:26:06.282Z,13.80
2024-04-24T09:28:33.951Z,14.00
2024-04-24T09:31:04.541Z,13.00
2024-04-24T09:33:32.254Z,14.50
2024-04-24T09:36:01.089Z,14.20
2024-04-24T09:38:31.685Z,13.30
2024-04-24T09:41:03.441Z,13.40
2024-04-24T09:43:31.490Z,12.80
2024-04-24T09:45:59.578Z,13.50
2024-04-24T09:48:29.620Z,15.10
2024-04-24T09:50:57.900Z,13.80
2024-04-24T09:53:25.645Z,14.80
2024-04-24T09:56:05.324Z,13.90
2024-04-24T09:58:35.368Z,13.70
2024-04-24T10:01:07.353Z,15.20
2024-04-24T10:03:38.142Z,15.40
2024-04-24T10:06:08.947Z,15.40
2024-04-24T10:08:40.073Z,14.60
2024-04-24T10:11:11.747Z,16.20
2024-04-24T10:13:42.499Z,21.40
2024-04-24T10:16:11.146Z,15.50
2024-04-24T10:18:41.889Z,42.10
2024-04-24T10:21:10.911Z,30.70
2024-04-24T10:23:42.154Z,26.60
2024-04-24T10:26:10.735Z,16.40
2024-04-24T10:28:41.837Z,19.20
2024-04-24T10:33:37.711Z,16.30
2024-04-24T10:36:06.382Z,13.60
2024-04-24T10:38:34.697Z,12.60
2024-04-24T10:41:03.114Z,13.70
2024-04-24T10:43:34.578Z,15.10
2024-04-24T10:46:04.353Z,12.30
2024-04-24T10:48:55.969Z,12.40
2024-04-24T10:51:31.991Z,12.30
2024-04-24T10:54:14.857Z,11.60
2024-04-24T10:56:43.308Z,12.30
2024-04-24T10:59:11.626Z,12.20
2024-04-24T11:01:53.344Z,10.90
2024-04-24T11:04:26.688Z,11.40
2024-04-24T11:06:55.325Z,10.40
2024-04-24T11:09:24.463Z,10.50
2024-04-24T11:11:54.555Z,11.00
2024-04-24T11:14:22.392Z,10.20
2024-04-24T11:16:57.361Z,10.70
2024-04-24T11:19:25.215Z,10.10
2024-04-24T11:21:52.861Z,10.90
2024-04-24T11:24:33.777Z,11.30
2024-04-24T11:27:02.181Z,10.20
2024-04-24T11:29:38.852Z,10.30
2024-04-24T11:32:08.085Z,10.40
2024-04-24T11:34:39.177Z,10.00
2024-04-24T11:37:07.442Z,9.90
2024-04-24T11:39:36.064Z,9.20
2024-04-24T11:42:04.191Z,10.60
2024-04-24T11:44:33.442Z,10.90
2024-04-24T11:47:01.380Z,10.90
2024-04-24T11:49:29.317Z,11.20
2024-04-24T11:51:58.491Z,9.90
2024-04-24T11:54:29.078Z,9.80
2024-04-24T11:57:01.056Z,11.80
2024-04-24T11:59:30.476Z,11.20
2024-04-24T12:01:58.460Z,10.30
2024-04-24T12:04:26.342Z,11.00
2024-04-24T12:06:54.218Z,11.50
2024-04-24T12:09:21.899Z,11.20
2024-04-24T12:11:50.412Z,11.10
2024-04-24T12:14:19.518Z,11.00
2024-04-24T12:16:47.382Z,11.80
2024-04-24T12:19:15.064Z,11.70
2024-04-24T12:21:43.246Z,10.80
2024-04-24T12:24:10.887Z,11.60
2024-04-24T12:26:38.589Z,11.00
2024-04-24T12:29:06.249Z,9.70
2024-04-24T12:31:33.945Z,11.30
2024-04-24T12:34:01.800Z,10.60
2024-04-24T12:36:29.555Z,7.90
2024-04-24T12:38:57.143Z,9.30
2024-04-24T12:41:24.916Z,10.20
2024-04-24T12:43:52.631Z,9.20
2024-04-24T12:46:20.393Z,9.50
2024-04-24T12:48:57.028Z,6.50
2024-04-24T12:51:25.997Z,10.60
2024-04-24T12:53:54.233Z,8.20
2024-04-24T12:56:21.888Z,8.70
2024-04-24T12:58:50.876Z,9.30
2024-04-24T13:01:19.570Z,8.80
2024-04-24T13:03:47.973Z,9.20
2024-04-24T13:06:23.354Z,7.80
2024-04-24T13:08:51.990Z,6.80
2024-04-24T13:11:19.734Z,9.10
2024-04-24T13:13:47.589Z,8.20
2024-04-24T13:16:15.251Z,7.50
2024-04-24T13:18:43.830Z,9.20
2024-04-24T13:21:12.079Z,8.60
2024-04-24T13:23:39.747Z,8.30
2024-04-24T13:26:07.400Z,7.90
2024-04-24T13:28:35.035Z,7.40
2024-04-24T13:31:06.254Z,8.60
2024-04-24T13:33:35.491Z,7.60
2024-04-24T13:36:03.701Z,8.70
2024-04-24T13:41:07.584Z,8.40
2024-04-24T13:43:35.282Z,8.50
2024-04-24T13:48:32.897Z,8.50
2024-04-24T13:51:01.178Z,2.60
2024-04-24T13:53:28.954Z,8.90
2024-04-24T13:55:57.023Z,9.70
2024-04-24T13:58:24.704Z,2.90
2024-04-24T14:00:52.436Z,8.10
2024-04-24T14:03:20.287Z,9.60
2024-04-24T14:05:50.859Z,8.50
2024-04-24T14:08:18.568Z,5.80
2024-04-24T14:13:14.447Z,10.90
2024-04-24T14:15:42.057Z,12.10
2024-04-24T14:18:10.055Z,12.40
2024-04-24T14:20:38.059Z,13.70
2024-04-24T14:23:05.986Z,12.10
2024-04-24T14:25:35.612Z,14.00
2024-04-24T14:28:03.830Z,14.10
2024-04-24T14:30:31.434Z,14.20
2024-04-24T14:32:59.207Z,16.20
2024-04-24T14:35:27.086Z,14.30
2024-04-24T14:37:54.734Z,14.80
2024-04-24T14:40:22.341Z,13.10
2024-04-24T14:42:49.990Z,15.10
2024-04-24T14:45:17.659Z,14.50
2024-04-24T14:47:46.465Z,15.00
2024-04-24T14:50:15.043Z,13.70
2024-04-24T14:52:42.776Z,13.60
2024-04-24T14:55:10.565Z,15.00
2024-04-24T14:57:38.268Z,13.20
2024-04-24T15:00:06.681Z,14.20
2024-04-24T15:02:34.355Z,14.50
2024-04-24T15:05:02.333Z,15.50
2024-04-24T15:07:30.208Z,14.80
2024-04-24T15:09:57.928Z,14.50
2024-04-24T15:12:25.620Z,15.30
2024-04-24T15:14:53.839Z,15.60
2024-04-24T15:17:21.746Z,13.60
2024-04-24T15:19:49.372Z,17.60
2024-04-24T15:22:17.399Z,15.20
2024-04-24T15:24:45.300Z,14.80
2024-04-24T15:27:13.211Z,14.30
2024-04-24T15:29:40.912Z,15.90
2024-04-24T15:32:08.651Z,16.00
2024-04-24T15:34:36.984Z,15.80
2024-04-24T15:37:06.808Z,13.30
2024-04-24T15:39:34.599Z,15.90
2024-04-24T15:42:03.501Z,16.10
2024-04-24T15:44:33.392Z,16.80
2024-04-24T15:47:01.658Z,15.70
2024-04-24T15:49:29.339Z,15.00
2024-04-24T15:51:57.175Z,16.90
2024-04-24T15:54:24.971Z,13.40
2024-04-24T15:56:52.562Z,15.80
2024-04-24T15:59:20.279Z,16.50
2024-04-24T16:05:51.149Z,15.70
2024-04-24T16:08:18.820Z,16.80
2024-04-24T16:10:48.275Z,15.20
2024-04-24T16:13:16.007Z,15.50
2024-04-24T16:15:43.814Z,16.40
2024-04-24T16:18:11.503Z,16.30
2024-04-24T16:20:39.151Z,15.60
2024-04-24T16:23:06.869Z,11.20
2024-04-24T16:25:34.662Z,15.90
2024-04-24T16:28:02.350Z,17.00
2024-04-24T16:30:30.006Z,15.60
2024-04-24T16:32:57.843Z,14.30
2024-04-24T16:35:25.644Z,17.00
2024-04-24T16:37:53.523Z,16.60
2024-04-24T16:40:21.188Z,14.60
2024-04-24T16:42:48.866Z,14.50
2024-04-24T16:45:16.599Z,17.80
2024-04-24T16:47:44.364Z,16.70
2024-04-24T16:50:12.153Z,17.60
2024-04-24T16:52:39.874Z,16.90
2024-04-24T16:55:08.694Z,18.60
2024-04-24T16:57:37.729Z,17.20
2024-04-24T17:00:07.803Z,17.00
2024-04-24T17:02:35.676Z,17.60
2024-04-24T17:05:07.839Z,17.60
2024-04-24T17:07:35.550Z,18.70
2024-04-24T17:10:03.365Z,16.10
2024-04-24T17:12:31.040Z,19.60
2024-04-24T17:14:58.928Z,17.80
2024-04-24T17:17:26.789Z,19.10
2024-04-24T17:19:54.558Z,20.90
2024-04-24T17:22:22.252Z,20.80
2024-04-24T17:24:49.923Z,19.90
2024-04-24T17:27:18.115Z,20.50
2024-04-24T17:29:45.752Z,22.50
2024-04-24T17:32:13.934Z,19.30
2024-04-24T17:34:42.256Z,21.20
2024-04-24T17:37:09.972Z,21.00
2024-04-24T17:39:37.664Z,18.30
2024-04-24T17:42:05.416Z,16.50
2024-04-24T17:44:33.127Z,19.30
2024-04-24T17:47:00.871Z,16.70
2024-04-24T17:49:28.605Z,20.10
2024-04-24T17:51:56.286Z,18.20
2024-04-24T17:54:24.124Z,17.30
2024-04-24T17:56:51.854Z,19.30
2024-04-24T17:59:19.756Z,19.80
2024-04-24T18:01:47.459Z,19.60
2024-04-24T18:10:03.176Z,23.60
2024-04-24T18:12:35.560Z,24.50
2024-04-24T18:15:12.895Z,20.90
2024-04-24T18:17:45.439Z,22.00
2024-04-24T18:20:13.143Z,26.00
2024-04-24T18:22:42.095Z,25.90
2024-04-24T18:25:09.775Z,25.40
2024-04-24T18:27:37.470Z,26.00
2024-04-24T18:30:06.623Z,26.30
2024-04-24T18:32:35.183Z,25.80
2024-04-24T18:35:02.934Z,25.80
2024-04-24T18:37:30.601Z,25.30
2024-04-24T18:39:58.445Z,25.30
2024-04-24T18:42:26.246Z,25.00
2024-04-24T18:44:53.888Z,24.40
2024-04-24T18:47:21.772Z,20.80
2024-04-24T18:49:49.574Z,22.80
2024-04-24T18:52:17.631Z,24.50
2024-04-24T18:54:45.425Z,23.80
2024-04-24T18:57:13.075Z,20.40
2024-04-24T19:00:00.234Z,20.60
2024-04-24T19:02:28.475Z,19.00
2024-04-24T19:04:56.423Z,21.10
2024-04-24T19:07:24.276Z,19.20
2024-04-24T19:09:52.574Z,17.70
2024-04-24T19:12:20.373Z,19.10
2024-04-24T19:14:49.259Z,18.20
2024-04-24T19:17:19.952Z,15.10
2024-04-24T19:19:49.081Z,16.40
2024-04-24T19:22:17.799Z,16.60
2024-04-24T19:24:45.997Z,15.00
2024-04-24T19:27:16.449Z,16.20
2024-04-24T19:30:18.571Z,16.40
2024-04-24T19:32:46.788Z,14.50
2024-04-24T19:35:15.193Z,14.90
2024-04-24T19:37:43.142Z,16.30
2024-04-24T19:40:11.150Z,14.70
2024-04-24T19:42:39.351Z,17.50
2024-04-24T19:45:07.279Z,14.90
2024-04-24T19:48:01.697Z,18.40
2024-04-24T19:50:32.702Z,20.80
2024-04-24T19:53:01.291Z,20.70
2024-04-24T19:55:31.175Z,18.40
2024-04-24T19:57:58.822Z,20.60
2024-04-24T20:00:26.548Z,17.20
2024-04-24T20:02:54.268Z,17.20
2024-04-24T20:05:22.025Z,18.30
2024-04-24T20:07:49.831Z,19.80
2024-04-24T20:10:17.643Z,19.10
2024-04-24T20:12:52.267Z,20.30
2024-04-24T20:15:21.303Z,18.40
2024-04-24T20:17:58.538Z,21.90
2024-04-24T20:20:26.543Z,22.40
2024-04-24T20:22:54.261Z,20.50
2024-04-24T20:25:21.862Z,19.20
2024-04-24T20:28:10.444Z,23.00
2024-04-24T20:34:01.109Z,23.60
2024-04-24T20:36:38.099Z,23.20
2024-04-24T20:39:09.796Z,21.80
2024-04-24T20:41:41.271Z,22.70
2024-04-24T20:44:21.627Z,23.10
2024-04-24T20:46:56.752Z,24.00
2024-04-24T20:49:24.380Z,21.90
2024-04-24T20:51:52.057Z,20.90
2024-04-24T20:54:20.074Z,21.00
2024-04-24T20:56:48.465Z,20.40
2024-04-24T20:59:17.038Z,22.00
2024-04-24T21:01:44.695Z,23.10
2024-04-24T21:04:12.339Z,21.60
2024-04-24T21:06:39.987Z,22.50
2024-04-24T21:09:07.869Z,22.00
2024-04-24T21:11:35.731Z,22.20
2024-04-24T21:14:03.469Z,19.20
2024-04-24T21:16:32.156Z,20.10
2024-04-24T21:18:59.830Z,20.10
2024-04-24T21:21:27.514Z,21.90
2024-04-24T21:23:55.200Z,20.90
2024-04-24T21:26:23.086Z,19.00
2024-04-24T21:28:50.722Z,21.20
2024-04-24T21:31:18.498Z,21.30
2024-04-24T21:33:46.766Z,20.30
2024-04-24T21:36:14.433Z,22.10
2024-04-24T21:38:42.141Z,19.40
2024-04-24T21:41:23.378Z,20.70
2024-04-24T21:43:52.184Z,18.60
2024-04-24T21:46:20.248Z,21.30
2024-04-24T21:48:48.353Z,20.70
2024-04-24T21:51:16.187Z,20.90
2024-04-24T21:53:44.033Z,21.30
2024-04-24T21:56:11.699Z,22.00
2024-04-24T21:58:40.837Z,21.80
2024-04-24T22:01:09.081Z,20.00
2024-04-24T22:03:37.048Z,19.70
2024-04-24T22:06:06.029Z,21.10
2024-04-24T22:08:33.967Z,20.60
2024-04-24T22:11:01.736Z,20.70
2024-04-24T22:13:31.059Z,15.90
2024-04-24T22:15:59.732Z,22.20
2024-04-24T22:18:27.557Z,20.20
2024-04-24T22:20:56.961Z,22.80
2024-04-24T22:23:24.639Z,20.20
2024-04-24T22:25:54.158Z,22.70
2024-04-24T22:28:21.952Z,20.20
2024-04-24T22:30:50.442Z,16.70
2024-04-24T22:33:20.189Z,21.10
2024-04-24T22:36:20.459Z,15.40
2024-04-24T22:39:24.670Z,23.20
2024-04-24T22:45:07.487Z,22.90
2024-04-24T22:47:38.657Z,23.30
2024-04-24T22:50:13.264Z,20.80
2024-04-24T22:52:45.575Z,23.90
2024-04-24T22:55:13.337Z,20.50
2024-04-24T22:57:55.821Z,22.50
2024-04-24T23:00:23.785Z,25.90
2024-04-24T23:02:51.565Z,23.70
2024-04-24T23:05:19.384Z,24.60
2024-04-24T23:07:47.022Z,24.70
2024-04-24T23:10:14.775Z,21.20
2024-04-24T23:12:42.399Z,22.00
2024-04-24T23:15:10.177Z,22.40
2024-04-24T23:17:38.136Z,22.30
2024-04-24T23:20:06.367Z,21.50
2024-04-24T23:22:33.982Z,24.60
2024-04-24T23:25:01.598Z,23.00
2024-04-24T23:27:29.255Z,25.80
2024-04-24T23:29:56.883Z,25.00
2024-04-24T23:32:24.535Z,26.40
2024-04-24T23:34:52.517Z,26.50
2024-04-24T23:37:20.219Z,24.20
2024-04-24T23:39:47.928Z,26.70
2024-04-24T23:42:15.655Z,24.80
2024-04-24T23:44:43.348Z,26.00
2024-04-24T23:47:11.054Z,22.70
2024-04-24T23:49:38.714Z,26.30
2024-04-24T23:52:06.429Z,28.60
2024-04-24T23:54:34.111Z,26.00
2024-04-24T23:57:01.736Z,25.20
2024-04-24T23:59:29.351Z,25.40
